Time;durP1;ratioP1;P1;durP2;ratioP2;P2;SDS_P1;SDS_P2;PMS_P1;PMS_P2;Temp;Humidity;BMP_temperature;BMP_pressure;BME280_temperature;BME280_humidity;BME280_pressure;Samples;Min_cycle;Max_cycle;Signal;HPM_P1;HPM_P2
2023/03/23 00:04:00;;;;;;;20.40;13.70;;;;;;;5.39;68.23;100587.23;108199;1254;72470;-69
2023/03/23 00:06:27;;;;;;;20.40;14.10;;;;;;;5.34;68.35;100587.82;108166;1254;60444;-69
2023/03/23 00:08:58;;;;;;;19.20;14.10;;;;;;;5.32;68.52;100586.21;108192;1259;72946;-70
2023/03/23 00:11:28;;;;;;;19.40;14.00;;;;;;;5.30;68.53;100586.96;108141;1254;60402;-70
2023/03/23 00:13:57;;;;;;;20.80;14.70;;;;;;;5.29;68.51;100586.12;108229;1254;60347;-70
2023/03/23 00:16:37;;;;;;;21.90;15.40;;;;;;;5.28;68.57;100586.38;108232;1254;73569;-70
2023/03/23 00:19:08;;;;;;;20.90;13.60;;;;;;;5.28;68.56;100585.79;108173;1254;72459;-69
2023/03/23 00:21:38;;;;;;;21.10;14.90;;;;;;;5.24;68.62;100584.99;108149;1254;72875;-71
2023/03/23 00:24:11;;;;;;;26.50;19.30;;;;;;;5.23;68.71;100583.64;108167;1255;61111;-69
2023/03/23 00:26:43;;;;;;;21.30;15.50;;;;;;;5.22;68.86;100578.99;108136;1254;60562;-69
2023/03/23 00:29:16;;;;;;;26.50;17.30;;;;;;;5.22;68.78;100575.27;108140;1254;73960;-69
2023/03/23 00:53:06;;;;;;;19.00;13.60;;;;;;;5.04;69.31;100556.29;108108;1256;71518;-70
2023/03/23 00:55:36;;;;;;;17.60;13.00;;;;;;;5.03;69.35;100555.65;108122;1256;73954;-70
2023/03/23 00:58:02;;;;;;;18.80;13.40;;;;;;;5.02;69.35;100548.75;108157;1254;72266;-70
2023/03/23 01:00:30;;;;;;;19.00;13.20;;;;;;;4.98;69.30;100545.89;108138;1254;62078;-69
2023/03/23 01:02:58;;;;;;;18.00;12.70;;;;;;;4.94;69.08;100545.36;107987;1257;61561;-70
2023/03/23 01:05:31;;;;;;;16.10;12.90;;;;;;;4.90;69.12;100538.85;108026;1257;74853;-70
2023/03/23 01:29:55;;;;;;;28.20;20.70;;;;;;;4.43;70.30;100528.67;108123;1254;75271;-69
2023/03/23 01:32:21;;;;;;;27.10;20.60;;;;;;;4.47;70.47;100532.36;108001;1256;74094;-69
2023/03/23 01:34:49;;;;;;;26.00;19.70;;;;;;;4.52;70.61;100530.63;108123;1254;72439;-69
2023/03/23 01:37:16;;;;;;;28.60;21.00;;;;;;;4.53;70.60;100531.95;107983;1254;62494;-69
2023/03/23 01:39:44;;;;;;;27.20;19.90;;;;;;;4.55;70.61;100530.85;108174;1259;61612;-70
2023/03/23 01:42:11;;;;;;;31.70;22.90;;;;;;;4.57;70.79;100528.15;108005;1259;75060;-71
2023/03/23 01:44:39;;;;;;;30.50;21.80;;;;;;;4.60;70.86;100529.86;108175;1254;74018;-71
2023/03/23 01:47:07;;;;;;;34.00;22.60;;;;;;;4.62;70.93;100532.98;107990;1257;72957;-69
2023/03/23 01:49:42;;;;;;;32.90;22.20;;;;;;;4.66;71.03;100534.73;108072;1254;60942;-70
2023/03/23 01:52:16;;;;;;;28.60;21.80;;;;;;;4.72;71.17;100531.83;108179;1254;60421;-71
2023/03/23 01:59:59;;;;;;;34.70;23.80;;;;;;;4.89;71.62;100535.69;108151;1256;71253;-69
2023/03/23 02:02:43;;;;;;;34.80;24.30;;;;;;;4.95;71.76;100537.38;108171;1254;73523;-70
2023/03/23 02:05:26;;;;;;;32.10;24.00;;;;;;;4.98;71.73;100536.52;108077;1254;61101;-69
2023/03/23 02:07:54;;;;;;;32.80;23.40;;;;;;;5.01;71.66;100534.86;108040;1254;60343;-69
2023/03/23 02:10:21;;;;;;;35.10;24.60;;;;;;;5.01;71.56;100535.88;107852;1257;73914;-69
2023/03/23 02:12:48;;;;;;;34.80;24.50;;;;;;;4.99;71.42;100532.85;107900;1257;59198;-69
2023/03/23 02:15:16;;;;;;;35.50;25.20;;;;;;;4.95;71.33;100529.55;107851;1256;72053;-71
2023/03/23 02:17:52;;;;;;;36.90;26.30;;;;;;;4.93;71.37;100533.30;108115;1256;62233;-70
2023/03/23 02:20:55;;;;;;;37.80;26.50;;;;;;;4.93;71.29;100532.78;108118;1256;60380;-71
2023/03/23 02:23:40;;;;;;;34.70;24.40;;;;;;;4.94;71.32;100534.07;108129;1255;74948;-70
2023/03/23 02:26:36;;;;;;;35.70;24.20;;;;;;;4.95;71.35;100532.00;108171;1255;71766;-70
2023/03/23 02:29:40;;;;;;;35.40;24.10;;;;;;;4.95;71.29;100528.45;107929;1257;71709;-70
2023/03/23 02:32:27;;;;;;;33.60;24.50;;;;;;;4.94;71.07;100526.99;107981;1254;60628;-71
2023/03/23 02:34:59;;;;;;;34.90;24.20;;;;;;;4.92;71.04;100529.42;108141;1254;61138;-71
2023/03/23 02:37:32;;;;;;;32.40;23.60;;;;;;;4.92;70.97;100529.30;107890;1261;74902;-71
2023/03/23 02:40:15;;;;;;;34.40;24.50;;;;;;;4.91;71.00;100530.50;108211;1254;72758;-70
2023/03/23 02:42:45;;;;;;;32.10;22.60;;;;;;;4.89;70.72;100530.18;108201;1254;72764;-70
2023/03/23 02:45:24;;;;;;;31.40;21.90;;;;;;;4.88;70.79;100530.48;108163;1254;60402;-70
2023/03/23 02:48:01;;;;;;;26.50;19.80;;;;;;;4.86;70.71;100526.17;108057;1254;60219;-69
2023/03/23 02:50:30;;;;;;;24.30;18.10;;;;;;;4.82;70.59;100520.65;108030;1254;74508;-70
2023/03/23 02:59:03;;;;;;;20.00;16.80;;;;;;;4.67;70.71;100517.78;108104;1254;71140;-71
2023/03/23 03:01:35;;;;;;;21.00;17.50;;;;;;;4.62;70.73;100517.31;104100;1254;5245973;-71
2023/03/23 03:04:22;;;;;;;20.40;18.00;;;;;;;4.56;70.97;100519.85;108216;1254;60338;-70
2023/03/23 03:07:18;;;;;;;23.30;16.60;;;;;;;4.53;71.18;100520.84;108043;1259;73079;-70
2023/03/23 03:09:58;;;;;;;23.40;18.30;;;;;;;4.56;71.43;100520.75;108210;1254;72959;-70
2023/03/23 03:12:51;;;;;;;24.90;17.90;;;;;;;4.62;71.73;100524.06;100396;1254;10001801;-70
2023/03/23 03:15:23;;;;;;;22.90;18.90;;;;;;;4.68;71.89;100525.39;100566;1254;10001591;-70
2023/03/23 03:17:55;;;;;;;;;;;;;;;4.76;72.02;100524.95;107857;1254;73875;-71
2023/03/23 03:20:21;;;;;;;24.20;19.20;;;;;;;4.83;72.08;100526.30;107838;1254;60390;-70
2023/03/23 03:22:48;;;;;;;22.20;17.60;;;;;;;4.89;72.13;100527.01;107819;1254;60441;-70
2023/03/23 03:25:16;;;;;;;19.50;17.20;;;;;;;4.93;72.23;100526.06;107885;1254;75032;-68
2023/03/23 03:27:45;;;;;;;20.50;18.20;;;;;;;4.97;72.22;100527.13;107731;1257;73018;-69
2023/03/23 03:30:21;;;;;;;22.60;17.60;;;;;;;5.02;72.21;100528.49;107857;1254;73293;-69
2023/03/23 03:33:00;;;;;;;25.00;18.10;;;;;;;5.09;72.34;100525.04;107843;1254;61163;-70
2023/03/23 03:35:26;;;;;;;23.10;18.60;;;;;;;5.17;72.35;100523.36;107990;1254;60342;-70
2023/03/23 03:38:05;;;;;;;23.80;18.30;;;;;;;5.24;72.31;100520.38;107989;1254;74808;-70
2023/03/23 03:40:32;;;;;;;22.20;18.50;;;;;;;5.33;72.34;100521.25;107856;1257;72145;-70
2023/03/23 03:42:58;;;;;;;23.50;19.60;;;;;;;5.38;72.31;100521.98;107755;1254;59937;-70
2023/03/23 03:45:27;;;;;;;26.40;20.50;;;;;;;5.44;72.23;100525.30;108517;1258;61555;-71
2023/03/23 03:47:56;;;;;;;24.70;19.70;;;;;;;5.50;72.23;100523.27;107976;1254;60335;-70
2023/03/23 03:50:24;;;;;;;27.20;21.30;;;;;;;5.57;72.13;100521.54;107834;1257;73443;-70
2023/03/23 03:52:50;;;;;;;25.90;20.70;;;;;;;5.64;72.09;100520.44;107888;1254;59507;-70
2023/03/23 03:55:17;;;;;;;28.40;21.60;;;;;;;5.70;71.94;100520.19;107931;1254;60473;-70
2023/03/23 03:57:46;;;;;;;26.30;21.10;;;;;;;5.76;71.93;100518.48;107751;1256;60511;-70
2023/03/23 04:00:42;;;;;;;23.60;19.10;;;;;;;5.84;71.77;100517.38;109086;1254;61225;-70
2023/03/23 04:03:09;;;;;;;24.70;19.30;;;;;;;5.89;71.60;100516.02;107860;1254;74121;-70
2023/03/23 04:05:47;;;;;;;23.90;19.40;;;;;;;5.92;71.38;100513.83;107817;1254;74091;-70
2023/03/23 04:08:14;;;;;;;25.80;19.30;;;;;;;5.91;71.26;100511.48;107899;1254;74107;-70
2023/03/23 04:10:47;;;;;;;22.90;19.00;;;;;;;5.90;71.05;100511.52;107725;1258;62740;-70
2023/03/23 04:13:15;;;;;;;24.60;20.10;;;;;;;5.89;70.99;100512.61;107678;1257;61128;-70
2023/03/23 04:15:58;;;;;;;24.90;19.70;;;;;;;5.91;70.89;100511.58;107774;1256;73011;-71
2023/03/23 04:18:25;;;;;;;23.60;19.30;;;;;;;5.93;70.80;100512.55;107681;1257;73323;-71
2023/03/23 04:20:52;;;;;;;26.00;20.80;;;;;;;5.91;70.73;100513.02;107760;1256;73118;-70
2023/03/23 04:23:23;;;;;;;24.00;19.70;;;;;;;5.89;70.64;100514.05;107847;1259;60854;-71
2023/03/23 04:25:52;;;;;;;23.20;19.90;;;;;;;5.90;70.60;100514.17;108339;1256;60806;-70
2023/03/23 04:28:23;;;;;;;25.60;20.30;;;;;;;5.91;70.71;100515.94;107772;1253;71607;-70
2023/03/23 04:31:12;;;;;;;24.20;20.00;;;;;;;5.93;70.69;100514.95;107966;1257;72459;-70
2023/03/23 04:33:42;;;;;;;26.80;21.10;;;;;;;5.98;70.89;100515.67;108007;1257;71592;-70
2023/03/23 04:36:09;;;;;;;27.00;21.20;;;;;;;6.06;70.98;100516.76;107870;1254;60889;-70
2023/03/23 04:38:42;;;;;;;27.80;21.60;;;;;;;6.17;71.11;100520.53;107964;1257;61382;-70
2023/03/23 04:41:15;;;;;;;28.80;22.20;;;;;;;6.31;71.30;100519.05;107955;1256;73896;-70
2023/03/23 04:43:56;;;;;;;29.50;22.40;;;;;;;6.47;71.44;100519.75;107905;1254;72941;-70
2023/03/23 04:46:45;;;;;;;28.20;22.40;;;;;;;6.64;71.60;100509.25;107917;1254;72175;-71
2023/03/23 04:49:14;;;;;;;30.20;22.90;;;;;;;6.80;71.84;100505.52;109073;1254;60320;-69
2023/03/23 04:51:40;;;;;;;29.00;23.20;;;;;;;7.00;72.00;100507.73;108955;1255;58316;-70
2023/03/23 04:54:16;;;;;;;30.20;23.60;;;;;;;7.21;72.07;100507.05;108263;1258;73886;-70
2023/03/23 04:56:46;;;;;;;29.60;23.60;;;;;;;7.40;72.11;100509.24;107786;1258;72010;-74
2023/03/23 04:59:14;;;;;;;30.00;23.30;;;;;;;7.57;72.17;100509.38;107919;1256;72592;-69
2023/03/23 05:01:57;;;;;;;29.40;23.40;;;;;;;7.76;72.11;100506.37;107827;1254;61135;-70
2023/03/23 05:04:24;;;;;;;28.90;24.40;;;;;;;7.89;72.02;100506.11;107822;1259;61336;-71
2023/03/23 05:07:07;;;;;;;32.80;25.50;;;;;;;8.00;71.88;100505.03;107970;1254;74613;-70
2023/03/23 05:09:37;;;;;;;33.00;25.60;;;;;;;8.12;71.80;100502.07;108029;1254;71868;-70
2023/03/23 05:12:05;;;;;;;32.90;25.30;;;;;;;8.23;71.76;100504.74;107840;1257;59130;-70
2023/03/23 05:14:34;;;;;;;31.30;24.90;;;;;;;8.37;71.70;100507.36;107804;1257;61420;-71
2023/03/23 05:17:05;;;;;;;33.10;26.00;;;;;;;8.50;71.62;100511.48;107699;1255;60338;-70
2023/03/23 05:19:33;;;;;;;34.40;25.40;;;;;;;8.64;71.53;100510.48;107718;1257;74069;-70
2023/03/23 05:22:03;;;;;;;32.40;26.70;;;;;;;8.79;71.37;100518.05;108980;1255;73193;-69
2023/03/23 05:24:36;;;;;;;32.30;25.70;;;;;;;8.94;71.25;100514.67;108970;1257;74130;-69
2023/03/23 05:27:05;;;;;;;33.60;25.70;;;;;;;9.12;71.07;100513.78;108812;1254;60200;-71
2023/03/23 05:29:36;;;;;;;34.40;26.00;;;;;;;9.28;70.82;100516.64;107952;1254;61000;-71
2023/03/23 05:32:07;;;;;;;33.80;27.00;;;;;;;9.44;70.48;100515.64;107728;1257;74523;-71
2023/03/23 05:34:34;;;;;;;33.00;26.00;;;;;;;9.58;70.16;100513.45;107961;1254;73040;-70
2023/03/23 05:37:02;;;;;;;30.60;25.50;;;;;;;9.73;69.97;100506.66;107837;1254;73878;-69
2023/03/23 05:39:55;;;;;;;33.40;25.90;;;;;;;9.92;69.75;100507.84;107962;1254;61277;-69
2023/03/23 05:42:36;;;;;;;32.10;25.50;;;;;;;10.09;69.49;100508.04;107825;1255;60415;-70
2023/03/23 05:45:17;;;;;;;32.90;26.60;;;;;;;10.26;69.12;100511.39;107905;1257;73368;-71
2023/03/23 05:47:46;;;;;;;30.20;25.90;;;;;;;10.40;68.64;100515.02;107729;1257;71742;-70
2023/03/23 05:50:17;;;;;;;32.80;26.00;;;;;;;10.47;68.37;100517.44;107792;1254;73740;-70
2023/03/23 05:52:46;;;;;;;34.10;27.10;;;;;;;10.55;68.09;100517.70;107898;1255;61973;-69
2023/03/23 05:55:14;;;;;;;32.60;27.00;;;;;;;10.62;67.74;100521.31;107806;1256;60334;-70
2023/03/23 05:57:48;;;;;;;36.00;27.80;;;;;;;10.69;67.60;100524.50;107994;1254;72992;-70
2023/03/23 06:00:24;;;;;;;35.50;27.80;;;;;;;10.76;67.30;100524.92;108217;1254;72488;-70
2023/03/23 06:02:56;;;;;;;32.90;26.40;;;;;;;10.84;67.05;100523.64;107687;1254;73590;-71
2023/03/23 06:05:32;;;;;;;32.00;26.50;;;;;;;10.94;66.82;100520.70;107972;1254;62271;-70
2023/03/23 06:07:59;;;;;;;34.10;28.40;;;;;;;11.04;66.53;100520.96;108021;1254;60401;-69
2023/03/23 06:10:30;;;;;;;33.30;26.70;;;;;;;11.13;66.19;100524.31;107962;1257;75389;-69
2023/03/23 06:13:01;;;;;;;33.80;26.90;;;;;;;11.20;65.96;100524.88;107522;1257;74035;-69
2023/03/23 06:15:32;;;;;;;34.90;26.80;;;;;;;11.26;65.54;100522.98;107737;1256;71218;-70
2023/03/23 06:18:23;;;;;;;34.10;27.40;;;;;;;11.32;65.24;100528.02;107777;1254;63676;-69
2023/03/23 06:21:09;;;;;;;38.70;29.00;;;;;;;11.39;65.03;100528.95;107953;1254;60595;-69
2023/03/23 06:23:59;;;;;;;36.30;28.10;;;;;;;11.46;64.75;100528.98;107872;1254;75107;-69
2023/03/23 06:26:37;;;;;;;35.70;28.30;;;;;;;11.54;64.57;100525.41;107945;1254;72985;-69
2023/03/23 06:29:10;;;;;;;36.80;29.00;;;;;;;11.61;64.43;100527.83;107874;1257;72576;-69
2023/03/23 06:31:47;;;;;;;33.80;27.80;;;;;;;11.72;64.28;100528.02;107980;1254;60945;-70
2023/03/23 06:34:14;;;;;;;33.30;27.20;;;;;;;11.78;63.97;100528.29;107885;1254;60389;-70
2023/03/23 06:37:07;;;;;;;37.90;29.70;;;;;;;11.83;63.74;100528.31;107818;1254;74260;-70
2023/03/23 06:39:44;;;;;;;34.70;28.40;;;;;;;11.92;63.63;100523.09;107821;1257;72844;-70
2023/03/23 06:42:18;;;;;;;38.30;29.00;;;;;;;12.04;63.32;100523.96;107824;1254;72496;-70
2023/03/23 06:44:49;;;;;;;35.50;28.00;;;;;;;12.15;63.11;100518.49;107744;1256;62394;-70
2023/03/23 06:47:17;;;;;;;34.30;29.40;;;;;;;12.29;62.98;100518.60;109142;1257;61184;-70
2023/03/23 06:49:47;;;;;;;33.60;28.50;;;;;;;12.43;62.75;100519.66;108982;1260;72655;-71
2023/03/23 06:52:25;;;;;;;37.00;29.30;;;;;;;12.59;62.46;100523.48;108295;1261;73230;-70
2023/03/23 06:54:53;;;;;;;34.50;27.90;;;;;;;12.73;62.06;100523.63;107798;1254;71452;-70
2023/03/23 06:57:22;;;;;;;33.00;28.80;;;;;;;12.84;61.77;100522.95;109230;1254;58430;-70
2023/03/23 06:59:51;;;;;;;36.00;28.10;;;;;;;12.98;61.47;100526.34;109086;1254;58815;-70
2023/03/23 07:02:18;;;;;;;33.40;27.10;;;;;;;13.08;60.90;100523.52;108713;1254;74570;-70
2023/03/23 07:04:47;;;;;;;33.00;27.00;;;;;;;13.17;60.55;100524.54;107890;1254;71213;-69
2023/03/23 07:07:20;;;;;;;31.30;26.10;;;;;;;13.26;60.22;100527.05;107886;1258;72091;-69
2023/03/23 07:09:54;;;;;;;30.50;26.20;;;;;;;13.35;59.77;100528.20;107761;1255;60379;-68
2023/03/23 07:12:24;;;;;;;31.10;27.20;;;;;;;13.38;59.44;100525.44;107880;1254;60713;-70
2023/03/23 07:14:51;;;;;;;32.50;27.70;;;;;;;13.45;59.25;100527.40;108033;1254;72959;-70
2023/03/23 07:17:18;;;;;;;34.80;28.30;;;;;;;13.50;58.89;100529.73;108025;1254;73728;-70
2023/03/23 07:20:03;;;;;;;30.50;26.90;;;;;;;13.55;58.62;100529.59;108149;1258;71521;-71
2023/03/23 07:22:31;;;;;;;30.50;26.30;;;;;;;13.57;58.30;100531.94;107982;1257;61558;-71
2023/03/23 07:25:04;;;;;;;31.20;25.90;;;;;;;13.60;58.03;100530.42;108004;1254;60631;-71
2023/03/23 07:27:44;;;;;;;30.10;25.60;;;;;;;13.64;57.83;100531.52;108085;1254;72829;-71
2023/03/23 07:30:14;;;;;;;31.60;25.40;;;;;;;13.68;57.59;100530.91;107903;1254;73103;-69
2023/03/23 07:32:41;;;;;;;31.50;26.20;;;;;;;13.72;57.43;100527.72;107901;1257;73006;-68
2023/03/23 07:35:09;;;;;;;32.60;27.50;;;;;;;13.79;57.35;100528.42;108119;1254;60328;-70
2023/03/23 07:37:58;;;;;;;33.70;27.80;;;;;;;13.90;57.04;100526.21;108072;1256;60335;-71
2023/03/23 07:40:25;;;;;;;31.70;26.60;;;;;;;13.96;56.85;100527.61;107932;1254;74772;-71
2023/03/23 07:42:55;;;;;;;31.60;27.60;;;;;;;14.01;56.63;100525.48;108128;1254;73832;-69
2023/03/23 07:45:44;;;;;;;30.10;25.30;;;;;;;14.10;56.60;100524.23;107775;1256;72794;-70
2023/03/23 07:48:13;;;;;;;32.50;26.50;;;;;;;14.18;56.37;100524.06;108095;1254;60204;-70
2023/03/23 07:50:40;;;;;;;31.20;26.20;;;;;;;14.24;56.23;100524.91;107995;1254;61371;-70
2023/03/23 07:53:10;;;;;;;32.00;27.00;;;;;;;14.30;56.14;100521.70;107875;1254;73929;-69
2023/03/23 07:55:37;;;;;;;29.50;25.20;;;;;;;14.37;55.98;100519.48;108171;1254;73501;-70
2023/03/23 07:58:08;;;;;;;32.60;26.60;;;;;;;14.44;55.89;100515.71;108126;1254;71918;-69
2023/03/23 08:00:35;;;;;;;30.90;26.10;;;;;;;14.51;55.80;100508.24;107865;1257;61407;-71
2023/03/23 08:03:04;;;;;;;31.40;26.20;;;;;;;14.62;55.70;100509.42;108095;1254;61472;-70
2023/03/23 08:05:37;;;;;;;31.40;26.20;;;;;;;14.74;55.53;100509.41;107987;1254;72907;-70
2023/03/23 08:08:32;;;;;;;33.10;28.00;;;;;;;14.87;55.37;100502.60;107891;1257;72227;-70
2023/03/23 08:11:28;;;;;;;31.80;26.40;;;;;;;15.01;55.19;100507.91;108124;1254;73678;-71
2023/03/23 08:14:18;;;;;;;31.20;26.00;;;;;;;15.16;55.02;100501.27;107989;1256;63048;-71
2023/03/23 08:17:18;;;;;;;36.30;28.00;;;;;;;15.29;54.51;100499.40;107769;1254;61415;-71
2023/03/23 08:20:16;;;;;;;29.60;25.10;;;;;;;15.38;54.24;100498.52;108092;1257;74737;-69
2023/03/23 08:23:08;;;;;;;31.50;26.40;;;;;;;15.52;54.00;100493.21;107951;1254;72977;-70
2023/03/23 08:26:06;;;;;;;31.10;26.40;;;;;;;15.74;54.00;100491.99;107626;1254;72661;-70
2023/03/23 08:28:55;;;;;;;30.60;25.30;;;;;;;15.99;53.38;100493.23;108072;1259;61578;-70
2023/03/23 08:31:51;;;;;;;29.70;24.70;;;;;;;16.21;52.79;100492.80;107531;1258;61088;-70
2023/03/23 08:34:36;;;;;;;28.50;23.70;;;;;;;16.38;52.24;100495.13;108100;1256;73845;-69
2023/03/23 08:37:08;;;;;;;28.30;23.30;;;;;;;16.54;51.80;100491.02;108130;1254;71800;-70
2023/03/23 08:39:55;;;;;;;30.00;24.50;;;;;;;16.73;51.53;100491.71;108176;1258;71735;-70
2023/03/23 08:42:48;;;;;;;25.70;21.70;;;;;;;16.91;50.96;100492.00;108140;1254;61274;-70
2023/03/23 08:45:37;;;;;;;26.20;23.00;;;;;;;17.07;50.53;100488.70;108122;1257;60421;-71
2023/03/23 08:48:38;;;;;;;27.60;23.30;;;;;;;17.24;50.00;100487.70;107954;1256;72537;-74
2023/03/23 08:51:23;;;;;;;27.80;22.90;;;;;;;17.36;49.45;100487.27;108115;1254;73913;-71
2023/03/23 08:54:10;;;;;;;26.50;23.30;;;;;;;17.45;49.00;100487.52;108054;1259;71065;-71
2023/03/23 08:57:03;;;;;;;24.60;21.80;;;;;;;17.53;49.24;100482.45;108126;1254;61184;-71
2023/03/23 08:59:57;;;;;;;25.00;21.60;;;;;;;17.67;48.83;100477.72;107748;1257;61115;-71
2023/03/23 09:02:49;;;;;;;23.00;20.60;;;;;;;17.81;48.51;100471.27;108030;1257;73920;-70
2023/03/23 09:05:24;;;;;;;24.70;21.50;;;;;;;17.93;48.08;100467.41;108006;1257;73690;-71
2023/03/23 09:08:15;;;;;;;26.00;22.10;;;;;;;18.03;47.65;100464.84;107922;1254;73682;-70
2023/03/23 09:10:42;;;;;;;24.60;21.30;;;;;;;18.11;47.57;100463.83;108085;1254;60515;-70
2023/03/23 09:13:08;;;;;;;24.30;20.20;;;;;;;18.18;47.34;100462.60;108160;1254;60328;-70
2023/03/23 09:15:38;;;;;;;22.70;20.30;;;;;;;18.30;47.32;100456.67;108015;1254;74922;-70
2023/03/23 09:18:05;;;;;;;23.80;20.80;;;;;;;18.41;46.99;100453.73;108131;1254;72971;-71
2023/03/23 09:20:32;;;;;;;24.00;20.90;;;;;;;18.49;46.84;100451.38;108135;1254;72751;-71
2023/03/23 09:23:05;;;;;;;23.60;20.30;;;;;;;18.61;46.43;100450.69;108190;1254;60334;-70
2023/03/23 09:25:32;;;;;;;21.80;18.90;;;;;;;18.71;46.20;100445.01;108072;1255;60315;-70
2023/03/23 09:27:59;;;;;;;21.90;19.60;;;;;;;18.58;46.13;100445.91;108174;1254;73042;-71
2023/03/23 09:30:30;;;;;;;22.30;19.90;;;;;;;18.54;46.01;100447.88;108006;1254;72852;-70
2023/03/23 09:32:57;;;;;;;22.10;19.80;;;;;;;18.59;45.72;100442.48;108102;1259;73841;-70
2023/03/23 09:35:24;;;;;;;20.80;18.60;;;;;;;18.65;45.37;100440.73;108119;1254;61567;-71
2023/03/23 09:37:52;;;;;;;19.80;17.60;;;;;;;18.71;45.31;100436.19;108086;1257;60389;-71
2023/03/23 09:40:23;;;;;;;21.00;18.80;;;;;;;18.79;45.32;100436.20;108140;1258;73405;-71
2023/03/23 09:43:05;;;;;;;22.40;18.90;;;;;;;18.86;44.61;100433.45;108034;1254;72913;-72
2023/03/23 09:45:36;;;;;;;21.30;18.30;;;;;;;18.87;44.68;100430.92;108034;1254;73589;-71
2023/03/23 09:48:20;;;;;;;20.40;18.20;;;;;;;18.94;44.61;100428.49;108116;1254;61994;-70
2023/03/23 09:50:48;;;;;;;20.10;17.60;;;;;;;19.05;44.51;100424.84;108168;1254;60319;-70
2023/03/23 09:53:34;;;;;;;21.10;17.80;;;;;;;19.12;44.34;100420.80;108082;1254;74940;-70
2023/03/23 09:56:22;;;;;;;22.10;18.80;;;;;;;19.25;44.19;100420.30;107984;1257;74117;-72
2023/03/23 09:59:30;;;;;;;19.70;17.60;;;;;;;19.32;43.87;100417.20;107875;1254;71913;-69
2023/03/23 10:02:04;;;;;;;22.50;18.40;;;;;;;19.45;43.57;100412.48;107953;1254;61499;-70
2023/03/23 10:04:39;;;;;;;19.70;17.50;;;;;;;19.53;43.60;100407.13;108202;1254;60543;-71
2023/03/23 10:07:18;;;;;;;19.40;17.30;;;;;;;19.65;43.34;100401.07;108189;1254;75396;-70
2023/03/23 10:09:46;;;;;;;19.80;17.70;;;;;;;19.78;42.91;100395.45;108102;1254;72278;-70
2023/03/23 10:12:36;;;;;;;21.30;19.00;;;;;;;19.84;42.62;100389.98;108109;1259;72695;-71
2023/03/23 10:15:09;;;;;;;19.30;17.30;;;;;;;19.88;42.53;100389.85;107922;1256;60387;-70
2023/03/23 10:18:00;;;;;;;21.10;18.00;;;;;;;19.97;42.30;100386.09;108153;1254;60584;-70
2023/03/23 10:20:39;;;;;;;18.70;16.80;;;;;;;20.09;42.24;100384.65;107905;1254;74882;-71
2023/03/23 10:23:19;;;;;;;19.00;15.90;;;;;;;20.18;41.95;100380.62;108014;1254;72057;-71
2023/03/23 10:25:51;;;;;;;16.70;14.80;;;;;;;20.25;41.75;100378.15;108122;1254;73478;-70
2023/03/23 10:28:45;;;;;;;14.40;12.30;;;;;;;20.29;41.16;100376.39;108061;1257;60601;-71
2023/03/23 10:31:18;;;;;;;15.60;13.20;;;;;;;20.24;39.34;100371.30;108137;1257;61566;-70
2023/03/23 10:33:47;;;;;;;13.10;11.20;;;;;;;20.14;39.25;100365.80;108161;1257;74054;-71
2023/03/23 10:36:31;;;;;;;14.30;11.20;;;;;;;20.09;38.99;100363.36;108143;1255;73935;-71
2023/03/23 10:39:20;;;;;;;11.50;10.30;;;;;;;20.01;38.97;100358.92;107920;1256;72355;-70
2023/03/23 10:41:46;;;;;;;11.30;10.20;;;;;;;19.93;38.23;100360.14;108118;1257;60294;-71
2023/03/23 10:44:21;;;;;;;13.40;10.70;;;;;;;19.78;37.66;100354.10;108148;1256;60441;-71
2023/03/23 10:46:53;;;;;;;13.60;10.80;;;;;;;19.57;37.38;100356.20;108109;1257;73381;-71
2023/03/23 10:49:21;;;;;;;;;;;;;;;19.35;37.74;100355.72;108178;1257;71557;-71
2023/03/23 10:51:57;;;;;;;12.30;10.70;;;;;;;19.22;38.22;100350.60;108088;1256;72928;-70
2023/03/23 10:54:27;;;;;;;10.50;9.40;;;;;;;19.20;38.57;100348.49;107966;1257;61505;-71
2023/03/23 10:56:55;;;;;;;10.90;9.40;;;;;;;19.28;38.58;100341.33;108074;1257;61256;-70
2023/03/23 10:59:28;;;;;;;12.30;10.00;;;;;;;19.37;38.19;100340.36;108122;1257;74055;-71
2023/03/23 11:01:59;;;;;;;10.70;9.60;;;;;;;19.47;37.71;100336.73;108117;1257;71956;-71
2023/03/23 11:04:27;;;;;;;12.70;10.70;;;;;;;19.55;37.62;100340.10;107969;1257;71985;-70
2023/03/23 11:07:01;;;;;;;11.10;10.00;;;;;;;19.57;37.36;100334.98;107789;1257;61239;-71
2023/03/23 11:09:39;;;;;;;12.40;10.60;;;;;;;19.56;37.69;100330.86;108123;1257;60803;-70
2023/03/23 11:12:18;;;;;;;11.80;10.60;;;;;;;19.56;37.68;100327.70;108057;1257;73857;-70
2023/03/23 11:14:45;;;;;;;12.40;10.60;;;;;;;19.57;37.86;100325.84;107999;1254;72656;-72
2023/03/23 11:17:26;;;;;;;12.90;10.30;;;;;;;19.58;37.88;100322.35;108152;1254;72627;-71
2023/03/23 11:19:54;;;;;;;10.20;9.10;;;;;;;19.59;37.99;100322.54;108122;1254;61316;-70
2023/03/23 11:22:28;;;;;;;13.50;11.30;;;;;;;19.60;37.78;100319.96;108150;1254;60570;-70
2023/03/23 11:25:03;;;;;;;12.00;9.90;;;;;;;19.60;37.64;100318.31;108199;1258;74226;-70
2023/03/23 11:27:36;;;;;;;11.00;9.90;;;;;;;19.62;37.80;100314.14;108204;1254;72659;-72
2023/03/23 11:30:12;;;;;;;12.40;10.10;;;;;;;19.65;37.82;100308.65;108142;1255;73758;-71
2023/03/23 11:32:43;;;;;;;11.70;10.40;;;;;;;19.66;37.77;100306.31;108186;1260;60592;-72
2023/03/23 11:35:21;;;;;;;12.50;10.60;;;;;;;19.68;37.75;100301.68;108224;1254;60331;-72
2023/03/23 11:37:56;;;;;;;11.90;9.90;;;;;;;19.73;37.66;100300.84;108195;1254;74575;-71
2023/03/23 11:40:25;;;;;;;11.80;10.60;;;;;;;19.79;37.77;100299.41;108212;1259;71516;-72
2023/03/23 11:43:08;;;;;;;11.50;10.30;;;;;;;19.91;37.77;100298.09;108194;1255;70578;-70
2023/03/23 11:45:42;;;;;;;11.90;10.40;;;;;;;20.04;37.50;100295.83;108169;1254;60506;-70
2023/03/23 11:48:18;;;;;;;13.20;10.70;;;;;;;20.15;36.74;100296.61;108104;1254;60470;-71
2023/03/23 11:50:47;;;;;;;10.50;9.30;;;;;;;20.17;36.18;100288.27;108219;1255;73949;-71
2023/03/23 11:53:25;;;;;;;10.60;9.30;;;;;;;20.14;35.87;100284.55;108199;1256;73813;-70
2023/03/23 11:56:16;;;;;;;10.80;9.00;;;;;;;20.12;35.69;100276.02;108138;1258;73917;-71
2023/03/23 11:58:44;;;;;;;10.40;8.90;;;;;;;20.10;35.32;100275.64;108141;1255;60593;-70
2023/03/23 12:01:22;;;;;;;10.60;8.70;;;;;;;20.08;35.15;100272.05;108163;1254;59819;-71
2023/03/23 12:03:52;;;;;;;11.20;9.00;;;;;;;20.04;35.23;100275.13;108052;1254;73627;-71
2023/03/23 12:07:01;;;;;;;14.80;9.80;;;;;;;20.03;35.21;100272.00;108220;1254;72840;-70
2023/03/23 12:09:35;;;;;;;13.80;9.70;;;;;;;19.99;34.91;100267.05;108219;1259;72452;-72
2023/03/23 12:12:15;;;;;;;10.80;9.70;;;;;;;19.95;35.17;100266.67;108179;1254;60277;-71
2023/03/23 12:15:21;;;;;;;11.00;9.70;;;;;;;19.97;35.44;100261.23;108152;1259;61946;-71
2023/03/23 12:18:05;;;;;;;10.50;9.30;;;;;;;19.99;35.29;100261.94;108139;1259;72141;-72
2023/03/23 12:20:56;;;;;;;11.00;9.90;;;;;;;19.97;35.24;100261.99;108142;1257;73587;-70
2023/03/23 12:23:33;;;;;;;11.00;9.60;;;;;;;19.92;35.08;100261.73;108122;1257;73168;-70
2023/03/23 12:26:16;;;;;;;11.10;9.30;;;;;;;19.82;34.78;100263.69;108141;1260;61144;-71
2023/03/23 12:29:12;;;;;;;13.70;11.10;;;;;;;19.67;34.64;100257.82;108153;1257;61371;-70
2023/03/23 12:32:04;;;;;;;12.40;9.90;;;;;;;19.52;34.90;100260.02;107956;1260;74176;-70
2023/03/23 12:34:55;;;;;;;12.10;10.50;;;;;;;19.44;35.04;100254.66;108165;1259;72463;-71
2023/03/23 12:38:11;;;;;;;11.20;9.00;;;;;;;19.35;34.89;100252.52;107955;1259;73139;-71
2023/03/23 12:40:58;;;;;;;11.60;9.70;;;;;;;19.29;35.00;100253.62;107897;1257;60486;-70
2023/03/23 12:43:45;;;;;;;11.80;10.30;;;;;;;19.26;35.30;100253.29;108127;1254;60859;-69